createdAt,value
2019-05-12T00:00:58.861Z,18.20
2019-05-12T00:03:27.740Z,18.20
2019-05-12T00:05:57.777Z,18.20
2019-05-12T00:08:27.697Z,18.10
2019-05-12T00:10:58.292Z,18.10
2019-05-12T00:13:27.923Z,18.00
2019-05-12T00:15:58.351Z,18.00
2019-05-12T00:18:28.485Z,17.90
2019-05-12T00:20:58.409Z,17.90
2019-05-12T00:23:30.375Z,17.90
2019-05-12T00:25:58.740Z,17.90
2019-05-12T00:28:28.421Z,17.90
2019-05-12T00:30:58.025Z,17.80
2019-05-12T00:33:28.269Z,17.80
2019-05-12T00:35:58.693Z,17.80
2019-05-12T00:38:27.898Z,17.70
2019-05-12T00:40:58.377Z,17.70
2019-05-12T00:43:28.204Z,17.70
2019-05-12T00:45:58.648Z,17.60
2019-05-12T00:48:28.438Z,17.60
2019-05-12T00:50:58.354Z,17.60
2019-05-12T00:53:39.431Z,17.60
2019-05-12T00:55:58.002Z,17.50
2019-05-12T00:58:27.808Z,17.50
2019-05-12T01:00:59.607Z,17.40
2019-05-12T01:03:28.137Z,17.40
2019-05-12T01:05:57.786Z,17.30
2019-05-12T01:08:28.025Z,17.30
2019-05-12T01:10:58.305Z,17.20
2019-05-12T01:13:27.944Z,17.20
2019-05-12T01:15:58.651Z,17.20
2019-05-12T01:18:28.040Z,17.10
2019-05-12T01:20:58.338Z,17.10
2019-05-12T01:23:28.098Z,17.10
2019-05-12T01:25:58.480Z,17.00
2019-05-12T01:28:27.837Z,17.00
2019-05-12T01:30:58.371Z,16.90
2019-05-12T01:33:27.697Z,17.00
2019-05-12T01:35:58.686Z,17.00
2019-05-12T01:38:28.756Z,16.90
2019-05-12T01:40:58.406Z,16.90
2019-05-12T01:43:27.816Z,16.90
2019-05-12T01:45:58.928Z,16.90
2019-05-12T01:48:28.739Z,16.90
2019-05-12T01:50:58.051Z,16.90
2019-05-12T01:53:28.663Z,16.90
2019-05-12T01:55:58.550Z,16.80
2019-05-12T01:58:27.900Z,16.90
2019-05-12T02:00:58.797Z,16.90
2019-05-12T02:03:28.427Z,16.80
2019-05-12T02:05:58.883Z,16.80
2019-05-12T02:08:29.295Z,16.80
2019-05-12T02:11:18.090Z,16.80
2019-05-12T02:13:48.092Z,16.80
2019-05-12T02:16:18.619Z,16.80
2019-05-12T02:18:48.927Z,16.80
2019-05-12T02:21:18.938Z,16.70
2019-05-12T02:23:47.942Z,16.60
2019-05-12T02:26:18.766Z,16.70
2019-05-12T02:28:48.086Z,16.70
2019-05-12T02:31:20.262Z,16.60
2019-05-12T02:33:47.384Z,16.60
2019-05-12T02:36:16.242Z,16.60
2019-05-12T02:38:45.465Z,16.60
2019-05-12T02:41:15.494Z,16.60
2019-05-12T02:43:45.670Z,16.60
2019-05-12T02:46:15.549Z,16.60
2019-05-12T02:48:45.073Z,16.60
2019-05-12T02:51:15.900Z,16.60
2019-05-12T02:53:47.067Z,16.60
2019-05-12T02:56:15.923Z,16.50
2019-05-12T02:58:46.412Z,16.50
2019-05-12T03:01:15.753Z,16.50
2019-05-12T03:03:46.472Z,16.50
2019-05-12T03:06:17.013Z,16.50
2019-05-12T03:08:47.340Z,16.50
2019-05-12T03:11:16.180Z,16.50
2019-05-12T03:13:45.068Z,16.50
2019-05-12T03:16:15.044Z,16.50
2019-05-12T03:18:44.972Z,16.50
2019-05-12T03:21:15.238Z,16.50
2019-05-12T03:23:44.918Z,16.50
2019-05-12T03:26:15.318Z,16.50
2019-05-12T03:28:44.767Z,16.40
2019-05-12T03:31:21.950Z,16.50
2019-05-12T03:33:52.007Z,16.50
2019-05-12T03:36:17.772Z,16.50
2019-05-12T03:38:45.074Z,16.50
2019-05-12T03:41:14.698Z,16.60
2019-05-12T03:43:44.845Z,16.60
2019-05-12T03:46:15.233Z,16.60
2019-05-12T03:48:45.438Z,16.60
2019-05-12T03:51:15.395Z,16.70
2019-05-12T03:53:45.426Z,16.70
2019-05-12T03:56:15.281Z,16.70
2019-05-12T03:58:45.236Z,16.70
2019-05-12T04:01:15.252Z,16.80
2019-05-12T04:03:45.101Z,16.90
2019-05-12T04:06:15.502Z,16.90
2019-05-12T04:08:45.912Z,17.00
2019-05-12T04:11:14.852Z,17.00
2019-05-12T04:13:45.236Z,17.10
2019-05-12T04:16:16.368Z,17.10
2019-05-12T04:18:45.243Z,17.10
2019-05-12T04:21:15.584Z,17.20
2019-05-12T04:23:44.602Z,17.30
2019-05-12T04:26:16.952Z,17.30
2019-05-12T04:28:45.575Z,17.30
2019-05-12T04:31:15.441Z,17.40
2019-05-12T04:33:45.304Z,17.40
2019-05-12T04:36:15.027Z,17.40
2019-05-12T04:38:45.018Z,17.50
2019-05-12T04:41:14.726Z,17.60
2019-05-12T04:43:44.752Z,17.70
2019-05-12T04:46:14.538Z,17.70
2019-05-12T04:48:45.302Z,17.80
2019-05-12T04:51:15.365Z,17.80
2019-05-12T04:53:44.981Z,17.80
2019-05-12T04:56:19.779Z,17.80
2019-05-12T04:58:45.181Z,17.90
2019-05-12T05:01:15.495Z,18.00
2019-05-12T05:03:44.595Z,18.00
2019-05-12T05:06:14.938Z,18.00
2019-05-12T05:08:44.387Z,18.00
2019-05-12T05:11:14.892Z,18.10
2019-05-12T05:13:44.537Z,18.10
2019-05-12T05:16:14.410Z,18.10
2019-05-12T05:18:43.959Z,18.20
2019-05-12T05:21:13.919Z,18.20
2019-05-12T05:23:44.272Z,18.20
2019-05-12T05:26:22.134Z,18.30
2019-05-12T05:28:43.835Z,18.30
2019-05-12T05:31:14.024Z,18.40
2019-05-12T05:33:43.517Z,18.40
2019-05-12T05:36:15.083Z,18.50
2019-05-12T05:38:43.647Z,18.50
2019-05-12T05:41:13.469Z,18.50
2019-05-12T05:43:43.826Z,18.70
2019-05-12T05:46:13.839Z,18.70
2019-05-12T05:48:43.985Z,18.70
2019-05-12T05:51:13.615Z,18.80
2019-05-12T05:53:44.207Z,18.90
2019-05-12T05:56:14.404Z,18.90
2019-05-12T05:58:49.582Z,19.00
2019-05-12T06:01:13.978Z,19.00
2019-05-12T06:03:44.160Z,19.00
2019-05-12T06:06:15.252Z,19.10
2019-05-12T06:08:45.159Z,19.20
2019-05-12T06:11:23.026Z,19.30
2019-05-12T06:13:45.442Z,19.30
2019-05-12T06:16:20.771Z,19.40
2019-05-12T06:18:44.708Z,19.50
2019-05-12T06:21:13.820Z,19.60
2019-05-12T06:23:43.505Z,19.60
2019-05-12T06:26:14.051Z,19.70
2019-05-12T06:28:43.931Z,19.80
2019-05-12T06:31:13.774Z,19.90
2019-05-12T06:33:44.662Z,20.00
2019-05-12T06:36:21.724Z,20.00
2019-05-12T06:38:43.787Z,20.10
2019-05-12T06:41:20.308Z,20.10
2019-05-12T06:43:45.342Z,20.20
2019-05-12T06:46:20.508Z,20.20
2019-05-12T06:48:45.582Z,20.30
2019-05-12T06:51:19.387Z,20.40
2019-05-12T06:53:44.669Z,20.40
2019-05-12T06:56:15.340Z,20.50
2019-05-12T06:58:44.273Z,20.60
2019-05-12T07:01:19.096Z,20.60
2019-05-12T07:03:44.107Z,20.70
2019-05-12T07:06:18.006Z,20.70
2019-05-12T07:08:43.837Z,20.80
2019-05-12T07:11:14.275Z,20.80
2019-05-12T07:13:43.635Z,20.90
2019-05-12T07:16:22.910Z,21.00
2019-05-12T07:18:48.230Z,21.10
2019-05-12T07:21:20.207Z,21.10
2019-05-12T07:23:47.553Z,21.10
2019-05-12T07:26:19.312Z,21.20
2019-05-12T07:28:46.909Z,21.30
2019-05-12T07:31:15.968Z,21.30
2019-05-12T07:33:45.830Z,21.40
2019-05-12T07:36:15.698Z,21.40
2019-05-12T07:38:46.743Z,21.50
2019-05-12T07:41:15.793Z,21.50
2019-05-12T07:43:50.435Z,21.60
2019-05-12T07:46:18.216Z,21.60
2019-05-12T07:48:50.831Z,21.70
2019-05-12T07:51:17.441Z,21.80
2019-05-12T07:53:54.515Z,21.90
2019-05-12T07:56:19.575Z,21.90
2019-05-12T07:58:54.049Z,21.90
2019-05-12T08:01:17.997Z,22.00
2019-05-12T08:03:50.911Z,22.00
2019-05-12T08:06:17.196Z,22.10
2019-05-12T08:08:50.911Z,22.10
2019-05-12T08:11:16.477Z,22.20
2019-05-12T08:13:45.216Z,22.20
2019-05-12T08:16:14.334Z,22.20
2019-05-12T08:18:44.595Z,22.30
2019-05-12T08:21:14.068Z,22.30
2019-05-12T08:23:44.466Z,22.40
2019-05-12T08:26:18.376Z,22.40
2019-05-12T08:28:44.313Z,22.50
2019-05-12T08:31:14.094Z,22.50
2019-05-12T08:33:43.625Z,22.50
2019-05-12T08:36:15.988Z,22.60
2019-05-12T08:38:44.410Z,22.60
2019-05-12T08:41:14.569Z,22.70
2019-05-12T08:43:48.800Z,22.80
2019-05-12T08:46:15.582Z,22.80
2019-05-12T08:48:44.686Z,22.90
2019-05-12T08:51:16.765Z,22.90
2019-05-12T08:53:44.137Z,22.90
2019-05-12T08:56:18.991Z,23.00
2019-05-12T08:58:50.480Z,23.10
2019-05-12T09:01:13.953Z,23.10
2019-05-12T09:03:44.284Z,23.20
2019-05-12T09:06:15.525Z,23.30
2019-05-12T09:08:49.293Z,23.30
2019-05-12T09:11:15.074Z,23.40
2019-05-12T09:13:43.868Z,23.40
2019-05-12T09:16:13.903Z,23.40
2019-05-12T09:18:43.503Z,23.50
2019-05-12T09:21:14.121Z,23.60
2019-05-12T09:24:04.294Z,23.60
2019-05-12T09:26:34.379Z,23.50
2019-05-12T09:29:03.562Z,23.70
2019-05-12T09:31:33.685Z,23.70
2019-05-12T09:34:11.102Z,23.80
2019-05-12T09:36:33.912Z,23.80
2019-05-12T09:39:05.869Z,23.90
2019-05-12T09:41:42.451Z,23.90
2019-05-12T09:44:05.324Z,24.00
2019-05-12T09:46:37.489Z,24.10
2019-05-12T09:49:04.784Z,24.20
2019-05-12T09:51:41.234Z,24.20
2019-05-12T09:54:05.247Z,24.30
2019-05-12T09:56:34.333Z,24.40
2019-05-12T09:59:17.272Z,24.50
2019-05-12T10:01:35.330Z,24.50
2019-05-12T10:04:04.289Z,24.50
2019-05-12T10:06:33.963Z,24.60
2019-05-12T10:09:08.771Z,24.60
2019-05-12T10:11:34.460Z,24.70
2019-05-12T10:14:06.415Z,24.80
2019-05-12T10:16:33.886Z,24.90
2019-05-12T10:19:03.935Z,25.00
2019-05-12T10:21:32.873Z,25.00
2019-05-12T10:24:04.934Z,25.00
2019-05-12T10:26:34.293Z,25.10
2019-05-12T10:29:16.386Z,25.10
2019-05-12T10:31:35.555Z,25.20
2019-05-12T10:34:23.871Z,25.20
2019-05-12T10:36:53.731Z,25.30
2019-05-12T10:39:24.313Z,25.40
2019-05-12T10:41:54.559Z,25.40
2019-05-12T10:44:23.750Z,25.40
2019-05-12T10:46:54.118Z,25.40
2019-05-12T10:49:23.342Z,25.40
2019-05-12T10:51:54.036Z,25.50
2019-05-12T10:54:24.189Z,25.60
2019-05-12T10:56:54.618Z,25.60
2019-05-12T10:59:32.171Z,25.60
2019-05-12T11:01:54.155Z,25.70
2019-05-12T11:04:35.205Z,25.80
2019-05-12T11:06:53.838Z,25.80
2019-05-12T11:09:29.509Z,25.90
2019-05-12T11:11:54.041Z,25.90
2019-05-12T11:14:26.463Z,26.00
2019-05-12T11:16:54.877Z,26.00
2019-05-12T11:19:23.684Z,26.00
2019-05-12T11:21:53.663Z,26.10
2019-05-12T11:24:22.943Z,26.20
2019-05-12T11:26:53.672Z,26.20
2019-05-12T11:29:23.584Z,26.30
2019-05-12T11:31:53.815Z,26.30
2019-05-12T11:34:22.950Z,26.30
2019-05-12T11:36:54.370Z,26.40
2019-05-12T11:39:23.559Z,26.40
2019-05-12T11:41:55.239Z,26.50
2019-05-12T11:44:23.319Z,26.50
2019-05-12T11:46:54.423Z,26.50
2019-05-12T11:49:26.434Z,26.60
2019-05-12T11:51:54.311Z,26.60
2019-05-12T11:54:24.301Z,26.70
2019-05-12T11:56:53.712Z,26.70
2019-05-12T11:59:23.717Z,26.90
2019-05-12T12:01:54.015Z,27.00
2019-05-12T12:04:24.723Z,27.10
2019-05-12T12:06:54.288Z,27.20
2019-05-12T12:09:23.510Z,27.20
2019-05-12T12:11:54.681Z,27.30
2019-05-12T12:14:23.809Z,27.40
2019-05-12T12:16:54.429Z,27.50
2019-05-12T12:19:26.078Z,27.60
2019-05-12T12:21:53.934Z,27.70
2019-05-12T12:24:29.807Z,27.80
2019-05-12T12:26:53.783Z,28.00
2019-05-12T12:29:24.105Z,28.00
2019-05-12T12:31:54.933Z,28.10
2019-05-12T12:34:29.810Z,28.10
2019-05-12T12:36:54.529Z,28.00
2019-05-12T12:39:23.853Z,28.10
2019-05-12T12:41:59.837Z,28.20
2019-05-12T12:44:24.237Z,28.30
2019-05-12T12:46:59.827Z,28.50
2019-05-12T12:49:23.568Z,28.70
2019-05-12T12:51:52.392Z,28.90
2019-05-12T12:54:21.135Z,28.90
2019-05-12T12:56:49.926Z,29.10
2019-05-12T12:59:18.746Z,29.20
2019-05-12T13:01:47.565Z,29.40
2019-05-12T13:04:16.419Z,29.40
2019-05-12T13:06:46.031Z,29.60
2019-05-12T13:09:24.217Z,29.60
2019-05-12T13:11:45.187Z,29.80
2019-05-12T13:14:14.026Z,29.90
2019-05-12T13:16:43.663Z,30.00
2019-05-12T13:19:16.913Z,30.20
2019-05-12T13:21:43.911Z,30.50
2019-05-12T13:24:12.939Z,31.00
2019-05-12T13:26:43.602Z,31.60
2019-05-12T13:29:13.444Z,32.20
2019-05-12T13:31:46.538Z,32.80
2019-05-12T13:34:14.501Z,33.30
2019-05-12T13:36:44.014Z,33.90
2019-05-12T13:39:16.389Z,34.40
2019-05-12T13:41:43.808Z,34.80
2019-05-12T13:44:13.705Z,34.80
2019-05-12T13:46:43.771Z,35.00
2019-05-12T13:49:14.023Z,34.80
2019-05-12T13:51:47.904Z,34.70
2019-05-12T13:54:14.377Z,34.50
2019-05-12T13:56:44.368Z,34.10
2019-05-12T13:59:20.736Z,33.90
2019-05-12T14:01:45.694Z,33.60
2019-05-12T14:04:14.270Z,33.30
2019-05-12T14:06:43.013Z,33.00
2019-05-12T14:09:13.571Z,32.80
2019-05-12T14:11:43.724Z,32.50
2019-05-12T14:14:15.456Z,32.40
2019-05-12T14:16:44.665Z,32.30
2019-05-12T14:19:14.435Z,32.10
2019-05-12T14:21:43.488Z,31.90
2019-05-12T14:24:13.901Z,32.10
2019-05-12T14:26:47.534Z,32.60
2019-05-12T14:29:13.837Z,33.10
2019-05-12T14:31:51.082Z,33.20
2019-05-12T14:34:18.863Z,33.00
2019-05-12T14:36:43.757Z,32.90
2019-05-12T14:39:13.360Z,33.30
2019-05-12T14:41:44.573Z,33.40
2019-05-12T14:44:13.715Z,33.10
2019-05-12T14:46:46.262Z,33.30
2019-05-12T14:49:14.330Z,33.60
2019-05-12T14:51:44.252Z,32.80
2019-05-12T14:54:13.520Z,32.60
2019-05-12T14:56:47.173Z,32.10
2019-05-12T14:59:14.407Z,31.80
2019-05-12T15:01:53.647Z,31.40
2019-05-12T15:04:19.503Z,31.00
2019-05-12T15:06:47.095Z,30.60
2019-05-12T15:09:20.407Z,30.40
2019-05-12T15:11:50.430Z,30.10
2019-05-12T15:14:24.563Z,29.90
2019-05-12T15:16:49.740Z,29.70
2019-05-12T15:19:20.904Z,29.50
2019-05-12T15:21:49.110Z,29.30
2019-05-12T15:24:19.126Z,29.10
2019-05-12T15:26:50.392Z,28.80
2019-05-12T15:29:20.123Z,28.80
2019-05-12T15:31:54.180Z,28.60
2019-05-12T15:34:19.526Z,28.40
2019-05-12T15:36:52.164Z,28.30
2019-05-12T15:39:19.229Z,27.90
2019-05-12T15:41:51.132Z,27.80
2019-05-12T15:44:23.217Z,27.70
2019-05-12T15:46:49.148Z,27.60
2019-05-12T15:49:17.898Z,27.40
2019-05-12T15:51:54.073Z,27.30
2019-05-12T15:54:17.255Z,27.20
2019-05-12T15:56:46.499Z,27.00
2019-05-12T15:59:17.419Z,26.80
2019-05-12T16:02:01.639Z,26.70
2019-05-12T16:04:23.719Z,26.70
2019-05-12T16:06:57.067Z,26.60
2019-05-12T16:09:23.780Z,26.50
2019-05-12T16:11:52.628Z,26.40
2019-05-12T16:14:23.344Z,26.30
2019-05-12T16:16:53.566Z,26.20
2019-05-12T16:19:23.449Z,26.10
2019-05-12T16:21:54.135Z,26.00
2019-05-12T16:24:23.686Z,25.90
2019-05-12T16:26:53.588Z,25.80
2019-05-12T16:29:23.220Z,25.70
2019-05-12T16:31:53.684Z,25.50
2019-05-12T16:34:22.498Z,25.40
2019-05-12T16:36:52.634Z,25.30
2019-05-12T16:39:23.795Z,25.30
2019-05-12T16:41:54.289Z,25.20
2019-05-12T16:44:25.773Z,25.20
2019-05-12T16:46:53.500Z,25.10
2019-05-12T16:49:32.450Z,25.00
2019-05-12T16:51:54.218Z,24.90
2019-05-12T16:54:24.125Z,24.80
2019-05-12T16:56:53.775Z,24.70
2019-05-12T16:59:24.680Z,24.60
2019-05-12T17:01:54.258Z,24.60
2019-05-12T17:04:23.855Z,24.50
2019-05-12T17:06:52.682Z,24.40
2019-05-12T17:09:23.906Z,24.30
2019-05-12T17:11:53.346Z,24.20
2019-05-12T17:14:23.515Z,24.20
2019-05-12T17:16:54.378Z,24.10
2019-05-12T17:19:23.627Z,24.10
2019-05-12T17:21:55.515Z,23.90
2019-05-12T17:24:23.948Z,23.90
2019-05-12T17:26:54.320Z,23.80
2019-05-12T17:29:24.197Z,23.80
2019-05-12T17:31:53.601Z,23.70
2019-05-12T17:34:25.822Z,23.60
2019-05-12T17:36:56.114Z,23.60
2019-05-12T17:39:29.213Z,23.50
2019-05-12T17:41:54.858Z,23.40
2019-05-12T17:44:23.686Z,23.40
2019-05-12T17:46:54.087Z,23.30
2019-05-12T17:49:30.344Z,23.20
2019-05-12T17:51:53.485Z,23.20
2019-05-12T17:54:26.195Z,23.10
2019-05-12T17:56:52.851Z,23.00
2019-05-12T17:59:24.441Z,23.00
2019-05-12T18:01:54.056Z,23.00
2019-05-12T18:04:26.469Z,22.90
2019-05-12T18:06:53.573Z,22.90
2019-05-12T18:09:23.643Z,22.80
2019-05-12T18:11:56.148Z,22.80
2019-05-12T18:14:27.315Z,22.80
2019-05-12T18:17:02.136Z,22.70
2019-05-12T18:19:24.333Z,22.70
2019-05-12T18:21:54.978Z,22.60
2019-05-12T18:24:24.142Z,22.60
2019-05-12T18:26:59.312Z,22.50
2019-05-12T18:29:23.758Z,22.50
2019-05-12T18:31:55.546Z,22.40
2019-05-12T18:34:25.113Z,22.40
2019-05-12T18:36:55.813Z,22.40
2019-05-12T18:39:24.399Z,22.30
2019-05-12T18:41:54.121Z,22.30
2019-05-12T18:44:31.186Z,22.30
2019-05-12T18:46:54.025Z,22.20
2019-05-12T18:49:23.889Z,22.20
2019-05-12T18:51:55.134Z,22.10
2019-05-12T18:54:24.234Z,22.10
2019-05-12T18:57:02.439Z,22.10
2019-05-12T18:59:23.941Z,22.00
2019-05-12T19:01:54.123Z,22.00
2019-05-12T19:04:23.099Z,21.90
2019-05-12T19:06:54.198Z,21.90
2019-05-12T19:09:23.922Z,21.90
2019-05-12T19:11:53.635Z,21.90
2019-05-12T19:14:22.947Z,21.80
2019-05-12T19:16:53.835Z,21.80
2019-05-12T19:19:23.755Z,21.70
2019-05-12T19:22:03.169Z,21.70
2019-05-12T19:24:23.143Z,21.70
2019-05-12T19:26:54.163Z,21.70
2019-05-12T19:29:24.270Z,21.60
2019-05-12T19:31:57.283Z,21.60
2019-05-12T19:34:26.161Z,21.50
2019-05-12T19:36:53.972Z,21.40
2019-05-12T19:39:25.166Z,21.40
2019-05-12T19:41:54.390Z,21.40
2019-05-12T19:44:26.405Z,21.30
2019-05-12T19:46:54.052Z,21.30
2019-05-12T19:49:26.159Z,21.20
2019-05-12T19:51:54.427Z,21.10
2019-05-12T19:54:25.545Z,21.10
2019-05-12T19:56:53.820Z,21.10
2019-05-12T19:59:23.679Z,21.00
2019-05-12T20:01:53.564Z,21.00
2019-05-12T20:04:30.876Z,20.90
2019-05-12T20:06:54.431Z,20.90
2019-05-12T20:09:24.352Z,20.90
2019-05-12T20:11:53.793Z,20.90
2019-05-12T20:14:24.161Z,20.80
2019-05-12T20:16:54.480Z,20.80
2019-05-12T20:19:25.322Z,20.80
2019-05-12T20:21:54.372Z,20.70
2019-05-12T20:24:23.731Z,20.70
2019-05-12T20:26:53.736Z,20.60
2019-05-12T20:29:26.668Z,20.60
2019-05-12T20:31:53.811Z,20.50
2019-05-12T20:34:24.406Z,20.50
2019-05-12T20:36:53.758Z,20.50
2019-05-12T20:39:24.535Z,20.50
2019-05-12T20:41:54.630Z,20.40
2019-05-12T20:44:23.931Z,20.40
2019-05-12T20:46:56.000Z,20.30
2019-05-12T20:49:24.165Z,20.30
2019-05-12T20:51:55.261Z,20.20
2019-05-12T20:54:24.008Z,20.20
2019-05-12T20:57:01.860Z,20.20
2019-05-12T20:59:27.951Z,20.10
2019-05-12T21:01:53.765Z,20.10
2019-05-12T21:04:31.305Z,20.00
2019-05-12T21:06:54.165Z,20.00
2019-05-12T21:09:23.801Z,20.00
2019-05-12T21:11:54.780Z,19.90
2019-05-12T21:14:24.033Z,19.90
2019-05-12T21:16:53.862Z,19.90
2019-05-12T21:19:24.116Z,19.80
2019-05-12T21:21:53.239Z,19.80
2019-05-12T21:24:24.282Z,19.80
2019-05-12T21:26:54.735Z,19.70
2019-05-12T21:29:25.593Z,19.70
2019-05-12T21:31:56.039Z,19.60
2019-05-12T21:34:25.567Z,19.70
2019-05-12T21:36:59.062Z,19.60
2019-05-12T21:39:24.969Z,19.60
2019-05-12T21:41:54.919Z,19.60
2019-05-12T21:44:24.515Z,19.60
2019-05-12T21:47:03.680Z,19.50
2019-05-12T21:49:25.284Z,19.50
2019-05-12T21:51:59.419Z,19.50
2019-05-12T21:54:29.647Z,19.40
2019-05-12T21:56:55.091Z,19.40
2019-05-12T21:59:28.919Z,19.40
2019-05-12T22:01:54.487Z,19.30
2019-05-12T22:04:23.638Z,19.30
2019-05-12T22:06:56.902Z,19.30
2019-05-12T22:09:24.010Z,19.30
2019-05-12T22:11:55.864Z,19.30
2019-05-12T22:14:24.044Z,19.30
2019-05-12T22:16:54.485Z,19.30
2019-05-12T22:19:23.346Z,19.20
2019-05-12T22:21:53.689Z,19.20
2019-05-12T22:24:25.210Z,19.20
2019-05-12T22:26:54.314Z,19.20
2019-05-12T22:29:29.880Z,19.20
2019-05-12T22:31:54.107Z,19.20
2019-05-12T22:34:27.558Z,19.20
2019-05-12T22:36:57.925Z,19.20
2019-05-12T22:39:23.695Z,19.20
2019-05-12T22:41:52.577Z,19.20
2019-05-12T22:44:24.550Z,19.10
2019-05-12T22:46:53.905Z,19.10
2019-05-12T22:49:22.311Z,19.10
2019-05-12T22:51:53.862Z,19.10
2019-05-12T22:54:21.469Z,19.10
2019-05-12T22:56:55.131Z,19.10
2019-05-12T22:59:20.710Z,19.10
2019-05-12T23:01:49.533Z,19.10
2019-05-12T23:04:18.381Z,19.10
2019-05-12T23:06:47.131Z,19.10
2019-05-12T23:09:19.586Z,19.00
2019-05-12T23:11:46.357Z,19.00
2019-05-12T23:14:20.547Z,19.00
2019-05-12T23:16:45.559Z,18.90
2019-05-12T23:19:15.134Z,18.90
2019-05-12T23:21:44.078Z,18.80
2019-05-12T23:24:14.379Z,18.80
2019-05-12T23:26:47.723Z,18.80
2019-05-12T23:29:14.579Z,18.70
2019-05-12T23:31:43.451Z,18.70
2019-05-12T23:34:14.477Z,18.60
2019-05-12T23:36:43.978Z,18.60
2019-05-12T23:39:14.314Z,18.60
2019-05-12T23:41:43.797Z,18.60
2019-05-12T23:44:13.549Z,18.50
2019-05-12T23:46:43.746Z,18.50
2019-05-12T23:49:14.321Z,18.40
2019-05-12T23:51:43.871Z,18.40
2019-05-12T23:54:14.393Z,18.40
2019-05-12T23:56:44.357Z,18.40
2019-05-12T23:59:13.599Z,18.30
